Charlevoix, MI

3:40 PM EDT on July 26, 2017 (GMT -0400)
Charlevoix Municipal

Weather History for KCVX - March, 2011

Change the Weather History Date:

Monday, March 14, 2011

  Actual Average Record
Temperature  
Mean Temperature 24 °F -  
Max Temperature 37 °F 35 °F 74 °F (2012)
Min Temperature 12 °F 22 °F 1 °F (2005)
Degree Days  
Heating Degree Days 40    
Moisture  
Dew Point 18 °F    
Average Humidity 81    
Maximum Humidity 100    
Minimum Humidity 56    
Precipitation  
Precipitation 0.00 in - - ()
Sea Level Pressure  
Sea Level Pressure 30.43 in    
Wind  
Wind Speed 4 mph (SSW)    
Max Wind Speed 10 mph    
Max Gust Speed -    
Visibility 10 miles    
Events      
Averages and records for this station are not official NWS values.
T = Trace of Precipitation, MM = Missing Value Source: NWS Daily Summary

Daily Weather History Graph

Daily Weather History Graph

Search for Another Location

Airport or City:

Trip Planner

Search our weather history database for the weather conditions in past years. The results will help you decide how hot, cold, wet, or windy it might be!

Date:

Astronomy

Mar. 14, 2011 Rise Set
Actual Time 7:55 AM EDT 7:45 PM EDT
Civil Twilight 7:26 AM EDT 8:14 PM EDT
Nautical Twilight 6:52 AM EDT 8:49 PM EDT
Astronomical Twilight 6:17 AM EDT 9:24 PM EDT
Moon 1:47 PM EDT (3/14) 4:33 AM EDT (3/14)
Length of Visible Light 12h 48m
Length of Day
11h 49m
Waxing Gibbous, 68% of the Moon is Illuminated
Mar 14
Waxing Gibbous
Mar 19
Full
Mar 26
Last Quarter
Apr 3
New
Apr 11
First Quarter

Hourly Weather History & Observations

Time (EDT) Temp. Windchill Dew Point Humidity Pressure Visibility Wind Dir Wind Speed Gust Speed Precip Events Conditions
12:14 AM 26.6 °F 18.2 °F 19.4 °F 74% 30.43 in 10.0 mi North 8.1 mph - N/A   Clear
12:34 AM 26.6 °F 19.1 °F 19.4 °F 74% 30.43 in 10.0 mi North 6.9 mph - N/A   Clear
12:55 AM 26.6 °F 22.6 °F 19.4 °F 74% 30.42 in 10.0 mi North 3.5 mph - N/A   Clear
1:14 AM 26.6 °F 22.6 °F 19.4 °F 74% 30.42 in 10.0 mi North 3.5 mph - N/A   Clear
1:34 AM 24.8 °F - 19.4 °F 80% 30.42 in 10.0 mi Calm Calm - N/A   Clear
1:54 AM 19.4 °F - 17.6 °F 93% 30.42 in 10.0 mi Calm Calm - N/A   Clear
2:14 AM 19.4 °F - 17.6 °F 93% 30.43 in 10.0 mi Calm Calm - N/A   Clear
2:34 AM 15.8 °F - 15.8 °F 100% 30.44 in 10.0 mi Calm Calm - N/A   Clear
2:54 AM 17.6 °F - 15.8 °F 93% 30.44 in 10.0 mi Calm Calm - N/A   Clear
3:14 AM 17.6 °F - 15.8 °F 93% 30.45 in 10.0 mi Calm Calm - N/A   Clear
3:33 AM 15.8 °F - 15.8 °F 100% 30.44 in 10.0 mi Calm Calm - N/A   Clear
3:54 AM 14.0 °F - 14.0 °F 100% 30.44 in 10.0 mi Calm Calm - N/A   Clear
4:14 AM 15.8 °F - 14.0 °F 93% 30.45 in 10.0 mi Calm Calm - N/A   Clear
4:35 AM 14.0 °F - 14.0 °F 100% 30.45 in 10.0 mi Calm Calm - N/A   Clear
4:54 AM 14.0 °F - 12.2 °F 93% 30.45 in 10.0 mi Calm Calm - N/A   Clear
5:14 AM 14.0 °F - 12.2 °F 93% 30.45 in 10.0 mi Calm Calm - N/A   Clear
5:35 AM 12.2 °F - 10.4 °F 92% 30.47 in 10.0 mi Calm Calm - N/A   Clear
5:54 AM 14.0 °F - 10.4 °F 86% 30.47 in 10.0 mi Calm Calm - N/A   Clear
6:14 AM 14.0 °F 6.5 °F 12.2 °F 93% 30.47 in 10.0 mi ESE 4.6 mph - N/A   Clear
6:34 AM 12.2 °F 4.3 °F 10.4 °F 92% 30.48 in 10.0 mi SE 4.6 mph - N/A   Clear
6:54 AM 14.0 °F 8.2 °F 12.2 °F 93% 30.47 in 10.0 mi ESE 3.5 mph - N/A   Clear
7:14 AM 14.0 °F 6.5 °F 10.4 °F 86% 30.47 in 10.0 mi ESE 4.6 mph - N/A   Clear
7:34 AM 14.0 °F 8.2 °F 12.2 °F 93% 30.47 in 10.0 mi ESE 3.5 mph - N/A   Clear
7:54 AM 14.0 °F 6.5 °F 12.2 °F 93% 30.46 in 7.0 mi East 4.6 mph - N/A   Clear
8:14 AM 14.0 °F 6.5 °F 12.2 °F 93% 30.45 in 10.0 mi ESE 4.6 mph - N/A   Clear
8:34 AM 14.0 °F 8.2 °F 12.2 °F 93% 30.45 in 10.0 mi ESE 3.5 mph - N/A   Clear
8:54 AM 15.8 °F - 14.0 °F 93% 30.45 in 10.0 mi Calm Calm - N/A   Clear
9:14 AM 17.6 °F 10.7 °F 15.8 °F 93% 30.45 in 10.0 mi ESE 4.6 mph - N/A   Clear
9:34 AM 17.6 °F 12.3 °F 15.8 °F 93% 30.45 in 10.0 mi ESE 3.5 mph - N/A   Clear
9:54 AM 21.2 °F 16.4 °F 17.6 °F 86% 30.45 in 10.0 mi SSE 3.5 mph - N/A   Clear
10:14 AM 23.0 °F 15.8 °F 19.4 °F 86% 30.45 in 10.0 mi SE 5.8 mph - N/A   Clear
10:34 AM 24.8 °F 19.1 °F 19.4 °F 80% 30.46 in 10.0 mi SE 4.6 mph - N/A   Clear
10:54 AM 26.6 °F 20.0 °F 19.4 °F 74% 30.46 in 10.0 mi SSE 5.8 mph - N/A   Clear
11:15 AM 28.4 °F - 19.4 °F 69% 30.45 in 10.0 mi Calm Calm - N/A   Clear
11:34 AM 30.2 °F 22.6 °F 19.4 °F 64% 30.45 in 10.0 mi SSW 8.1 mph - N/A   Clear
11:54 AM 30.2 °F 24.3 °F 21.2 °F 69% 30.45 in 10.0 mi SSW 5.8 mph - N/A   Clear
12:34 PM 32.0 °F 27.5 °F 21.2 °F 64% 30.44 in 10.0 mi South 4.6 mph - N/A   Clear
12:54 PM 32.0 °F 28.7 °F 21.2 °F 64% 30.44 in 10.0 mi SSW 3.5 mph - N/A   Clear
1:15 PM 33.8 °F 25.8 °F 19.4 °F 56% 30.44 in 10.0 mi WSW 10.4 mph - N/A   Clear
1:34 PM 32.0 °F 25.6 °F 19.4 °F 60% 30.42 in 10.0 mi SSW 6.9 mph - N/A   Clear
1:54 PM 33.8 °F 28.6 °F 23.0 °F 65% 30.42 in 10.0 mi WSW 5.8 mph - N/A   Clear
2:14 PM 33.8 °F 26.4 °F 23.0 °F 65% 30.41 in 10.0 mi West 9.2 mph - N/A   Clear
2:34 PM 33.8 °F 26.4 °F 23.0 °F 65% 30.40 in 10.0 mi West 9.2 mph - N/A   Clear
2:54 PM 33.8 °F 25.8 °F 23.0 °F 65% 30.39 in 10.0 mi West 10.4 mph - N/A   Clear
3:14 PM 33.8 °F 26.4 °F 23.0 °F 65% 30.38 in 10.0 mi West 9.2 mph - N/A   Clear
3:34 PM 35.6 °F 29.9 °F 24.8 °F 65% 30.37 in 10.0 mi WSW 6.9 mph - N/A   Clear
3:55 PM 35.6 °F 29.9 °F 24.8 °F 65% 30.35 in 10.0 mi West 6.9 mph - N/A   Clear
4:14 PM 35.6 °F 32.8 °F 24.8 °F 65% 30.35 in 10.0 mi WSW 3.5 mph - N/A   Clear
4:34 PM 37.4 °F 32.8 °F 23.0 °F 56% 30.36 in 10.0 mi WSW 5.8 mph - N/A   Clear
4:54 PM 35.6 °F 30.7 °F 26.6 °F 70% 30.35 in 10.0 mi West 5.8 mph - N/A   Clear
5:14 PM 35.6 °F 28.6 °F 26.6 °F 70% 30.35 in 10.0 mi West 9.2 mph - N/A   Clear
5:34 PM 33.8 °F 26.4 °F 24.8 °F 70% 30.36 in 10.0 mi West 9.2 mph - N/A   Clear
5:55 PM 33.8 °F 26.4 °F 26.6 °F 75% 30.35 in 10.0 mi WNW 9.2 mph - N/A   Clear
6:14 PM 33.8 °F 27.7 °F 24.8 °F 70% 30.35 in 10.0 mi West 6.9 mph - N/A   Clear
6:34 PM 32.0 °F 26.4 °F 26.6 °F 80% 30.36 in 10.0 mi West 5.8 mph - N/A   Clear
6:54 PM 32.0 °F 27.5 °F 26.6 °F 80% 30.35 in 10.0 mi West 4.6 mph - N/A   Clear
7:14 PM 32.0 °F 27.5 °F 23.0 °F 69% 30.35 in 10.0 mi SW 4.6 mph - N/A   Clear
7:34 PM 32.0 °F 28.7 °F 21.2 °F 64% 30.35 in 10.0 mi SW 3.5 mph - N/A   Clear
7:54 PM 32.0 °F 28.7 °F 21.2 °F 64% 30.35 in 10.0 mi SSW 3.5 mph - N/A   Clear
8:14 PM 30.2 °F 26.7 °F 21.2 °F 69% 30.35 in 10.0 mi SW 3.5 mph - N/A   Clear
8:34 PM 30.2 °F 26.7 °F 21.2 °F 69% 30.35 in 10.0 mi SW 3.5 mph - N/A   Clear
8:54 PM 30.2 °F - 21.2 °F 69% 30.35 in 10.0 mi Calm Calm - N/A   Clear
9:14 PM 28.4 °F - 23.0 °F 80% 30.35 in 10.0 mi Calm Calm - N/A   Clear
9:34 PM 28.4 °F 24.6 °F 23.0 °F 80% 30.35 in 10.0 mi SW 3.5 mph - N/A   Clear
9:54 PM 28.4 °F - 23.0 °F 80% 30.34 in 10.0 mi Calm Calm - N/A   Clear
10:14 PM 26.6 °F 22.6 °F 21.2 °F 80% 30.34 in 10.0 mi ESE 3.5 mph - N/A   Clear
10:34 PM 26.6 °F 22.6 °F 21.2 °F 80% 30.34 in 10.0 mi SE 3.5 mph - N/A   Clear
10:54 PM 24.8 °F 20.5 °F 21.2 °F 86% 30.33 in 10.0 mi ESE 3.5 mph - N/A   Clear
11:14 PM 24.8 °F 19.1 °F 23.0 °F 93% 30.33 in 10.0 mi SE 4.6 mph - N/A   Clear
11:34 PM 26.6 °F - 23.0 °F 86% 30.34 in 10.0 mi Calm Calm - N/A   Clear
11:55 PM 24.8 °F 20.5 °F 23.0 °F 93% 30.33 in 10.0 mi ESE 3.5 mph - N/A   Clear